Time;durP1;ratioP1;P1;durP2;ratioP2;P2;SDS_P1;SDS_P2;PMS_P1;PMS_P2;Temp;Humidity;BMP_temperature;BMP_pressure;BME280_temperature;BME280_humidity;BME280_pressure;Samples;Min_cycle;Max_cycle;Signal;HPM_P1;HPM_P2
2023/09/30 00:01:22;;;;;;;18.02;4.00;;;12.70;99.90;;;;;;5062904;28;19925;-62
2023/09/30 00:03:48;;;;;;;18.67;4.47;;;12.70;99.90;;;;;;5041742;28;20484;-62
2023/09/30 00:06:13;;;;;;;;;;;12.70;99.90;;;;;;5045219;28;20029;-62
2023/09/30 00:08:41;;;;;;;14.90;4.00;;;12.70;99.90;;;;;;5047389;28;19917;-62
2023/09/30 00:11:07;;;;;;;11.95;3.17;;;12.70;99.90;;;;;;5048586;28;20037;-61
2023/09/30 00:13:33;;;;;;;;;;;12.70;99.90;;;;;;5044434;28;20052;-60
2023/09/30 00:15:58;;;;;;;13.25;3.47;;;12.70;99.90;;;;;;5043213;28;19920;-61
2023/09/30 00:18:25;;;;;;;15.90;3.90;;;12.70;99.90;;;;;;5036676;28;20051;-61
2023/09/30 00:20:54;;;;;;;15.80;3.67;;;12.70;99.90;;;;;;5031916;28;20044;-60
2023/09/30 00:23:21;;;;;;;;;;;12.70;99.90;;;;;;5031335;28;20949;-62
2023/09/30 00:25:48;;;;;;;;;;;12.60;99.90;;;;;;5034016;28;19924;-60
2023/09/30 00:28:14;;;;;;;;;;;12.60;99.90;;;;;;5034581;28;19924;-61
2023/09/30 00:30:40;;;;;;;12.75;3.63;;;12.60;99.90;;;;;;5036673;28;19920;-61
2023/09/30 00:33:05;;;;;;;10.88;3.88;;;12.60;99.90;;;;;;5044934;28;20424;-61
2023/09/30 00:35:32;;;;;;;;;;;12.60;99.90;;;;;;5044841;28;20954;-61
2023/09/30 00:37:57;;;;;;;16.50;4.10;;;12.50;99.90;;;;;;5043505;28;20408;-61
2023/09/30 00:40:23;;;;;;;;;;;12.50;99.90;;;;;;5045679;28;20041;-61
2023/09/30 00:42:49;;;;;;;11.60;3.97;;;12.50;99.90;;;;;;5044200;28;19926;-61
2023/09/30 00:45:14;;;;;;;;;;;12.50;99.90;;;;;;5045932;28;20045;-61
2023/09/30 00:47:40;;;;;;;20.92;4.75;;;12.60;99.90;;;;;;5044078;28;20339;-60
2023/09/30 00:50:08;;;;;;;20.05;3.50;;;12.50;99.90;;;;;;5045328;28;20029;-58
2023/09/30 00:52:36;;;;;;;21.73;3.47;;;12.50;99.90;;;;;;5044145;28;20037;-61
2023/09/30 00:55:05;;;;;;;14.40;3.50;;;12.60;99.90;;;;;;5045000;28;20072;-61
2023/09/30 00:57:31;;;;;;;16.55;4.03;;;12.60;99.90;;;;;;5041435;28;20049;-62
2023/09/30 00:59:57;;;;;;;;;;;12.60;99.90;;;;;;5043288;28;20453;-61
2023/09/30 01:02:23;;;;;;;12.18;4.03;;;12.50;99.90;;;;;;5042761;28;19923;-61
2023/09/30 01:04:49;;;;;;;;;;;12.50;99.90;;;;;;5043575;28;20091;-61
2023/09/30 01:07:15;;;;;;;14.47;3.93;;;12.50;99.90;;;;;;5043749;28;20013;-59
2023/09/30 01:09:40;;;;;;;;;;;12.50;99.90;;;;;;5044553;28;20147;-61
2023/09/30 01:12:07;;;;;;;15.82;3.67;;;12.50;99.90;;;;;;5043793;28;19917;-62
2023/09/30 01:14:35;;;;;;;14.57;3.58;;;12.50;99.90;;;;;;5044209;28;20094;-62
2023/09/30 01:17:01;;;;;;;20.50;3.83;;;12.50;99.90;;;;;;5044203;28;20672;-61
2023/09/30 01:19:27;;;;;;;13.15;3.65;;;12.40;99.90;;;;;;5043286;28;20069;-61
2023/09/30 01:21:59;;;;;;;26.88;3.78;;;12.40;99.90;;;;;;5043818;28;21003;-62
2023/09/30 01:24:28;;;;;;;17.00;3.20;;;12.40;99.90;;;;;;5041130;28;21004;-62
2023/09/30 01:26:54;;;;;;;16.17;3.55;;;12.30;99.90;;;;;;5042458;28;20103;-62
2023/09/30 01:29:20;;;;;;;;;;;12.30;99.90;;;;;;5043148;28;20116;-62
2023/09/30 01:31:49;;;;;;;12.40;3.88;;;12.30;99.90;;;;;;5041217;28;19924;-62
2023/09/30 01:34:16;;;;;;;20.75;3.88;;;12.30;99.90;;;;;;5043664;28;20529;-61
2023/09/30 01:36:44;;;;;;;9.82;3.30;;;12.30;99.90;;;;;;5043628;28;20053;-62
2023/09/30 01:39:11;;;;;;;15.35;3.47;;;12.30;99.90;;;;;;5045157;28;20045;-61
2023/09/30 01:41:38;;;;;;;13.25;3.50;;;12.30;99.90;;;;;;5042982;28;20078;-63
2023/09/30 01:44:04;;;;;;;11.75;2.90;;;12.30;99.90;;;;;;5044279;28;20095;-62
2023/09/30 01:46:30;;;;;;;13.45;3.78;;;12.30;99.90;;;;;;5043149;28;20044;-62
2023/09/30 01:48:55;;;;;;;;;;;12.20;99.90;;;;;;5045253;28;20039;-62
2023/09/30 01:51:21;;;;;;;11.93;3.10;;;12.10;99.90;;;;;;5043814;28;20171;-61
2023/09/30 01:53:47;;;;;;;15.90;3.22;;;12.10;99.90;;;;;;5040432;28;20029;-62
2023/09/30 01:56:13;;;;;;;12.05;3.17;;;12.00;99.90;;;;;;5038529;28;20072;-62
2023/09/30 01:58:39;;;;;;;;;;;12.00;99.90;;;;;;5043787;28;20083;-62
2023/09/30 02:01:04;;;;;;;13.57;2.75;;;12.00;99.90;;;;;;5039448;28;20407;-62
2023/09/30 02:03:31;;;;;;;;;;;;;;;;;;5043560;28;20076;-62
2023/09/30 02:05:57;;;;;;;6.88;2.40;;;;;;;;;;5044573;28;19943;-60
2023/09/30 02:08:24;;;;;;;13.32;3.10;;;;;;;;;;5044340;28;20051;-61
2023/09/30 02:10:51;;;;;;;11.75;2.40;;;;;;;;;;5044203;28;20496;-60
2023/09/30 02:13:17;;;;;;;19.27;3.00;;;;;;;;;;5043750;28;20048;-60
2023/09/30 02:15:43;;;;;;;14.55;2.97;;;;;;;;;;5043092;28;20064;-61
2023/09/30 02:18:10;;;;;;;9.50;2.92;;;;;;;;;;5044043;28;20489;-59
2023/09/30 02:20:39;;;;;;;12.00;3.08;;;;;;;;;;5042130;28;20119;-61
2023/09/30 02:23:10;;;;;;;11.05;2.75;;;;;;;;;;5041131;28;20044;-61
2023/09/30 02:25:37;;;;;;;9.75;2.72;;;;;;;;;;5043535;28;20049;-60
2023/09/30 02:28:04;;;;;;;11.35;2.55;;;;;;;;;;5044605;28;20035;-59
2023/09/30 02:30:30;;;;;;;14.55;2.80;;;;;;;;;;5042860;28;20548;-60
2023/09/30 02:32:57;;;;;;;16.67;3.05;;;;;;;;;;5042638;28;20060;-61
2023/09/30 02:35:23;;;;;;;15.48;2.90;;;;;;;;;;5048602;28;20048;-60
2023/09/30 02:37:51;;;;;;;;;;;;;;;;;;5042932;28;20593;-59
2023/09/30 02:40:17;;;;;;;10.18;2.60;;;;;;;;;;5047528;28;19916;-61
2023/09/30 02:42:43;;;;;;;;;;;;;;;;;;5041999;28;20496;-61
2023/09/30 02:45:09;;;;;;;8.43;2.40;;;;;;;;;;5047007;28;19966;-61
2023/09/30 02:47:36;;;;;;;12.85;2.17;;;;;;;;;;5043039;28;20047;-61
2023/09/30 02:50:04;;;;;;;11.85;2.88;;;;;;;;;;5051745;28;20405;-61
2023/09/30 02:52:31;;;;;;;6.95;2.67;;;;;;;;;;5042426;28;20045;-62
2023/09/30 02:54:57;;;;;;;11.00;2.30;;;;;;;;;;5041890;28;20045;-61
2023/09/30 02:57:23;;;;;;;15.00;2.63;;;;;;;;;;5043810;28;20049;-61
2023/09/30 02:59:51;;;;;;;13.90;2.97;;;;;;;;;;5043274;28;20036;-61
2023/09/30 03:02:18;;;;;;;11.27;2.85;;;;;;;;;;5037009;28;20053;-60
2023/09/30 03:04:44;;;;;;;15.52;3.80;;;;;;;;;;5040238;28;20044;-61
2023/09/30 03:07:11;;;;;;;17.63;3.33;;;;;;;;;;5041921;28;20565;-61
2023/09/30 03:09:38;;;;;;;19.60;3.58;;;;;;;;;;5042680;28;20090;-59
2023/09/30 03:12:04;;;;;;;16.10;3.03;;;;;;;;;;5041342;28;20040;-59
2023/09/30 03:14:30;;;;;;;14.73;2.88;;;;;;;;;;5042810;28;20045;-60
2023/09/30 03:16:57;;;;;;;6.63;2.45;;;;;;;;;;5023792;28;20041;-61
2023/09/30 03:19:25;;;;;;;15.75;3.33;;;;;;;;;;5038696;28;20073;-60
2023/09/30 03:21:51;;;;;;;20.85;3.42;;;;;;;;;;5040389;28;20033;-61
2023/09/30 03:24:17;;;;;;;15.40;3.15;;;;;;;;;;5016654;28;20119;-61
2023/09/30 03:26:43;;;;;;;;;;;;;;;;;;5041687;28;20083;-61
2023/09/30 03:29:10;;;;;;;18.80;2.50;;;;;;;;;;5038585;28;20240;-63
2023/09/30 03:31:36;;;;;;;14.85;3.22;;;;;;;;;;5051651;28;20565;-61
2023/09/30 03:34:05;;;;;;;10.50;2.67;;;;;;;;;;5062463;28;20139;-61
2023/09/30 03:36:33;;;;;;;15.95;3.15;;;;;;;;;;5060350;28;20048;-61
2023/09/30 03:38:59;;;;;;;15.00;3.47;;;;;;;;;;5049051;28;20052;-61
2023/09/30 03:41:25;;;;;;;12.10;2.45;;;;;;;;;;5056644;28;20036;-62
2023/09/30 03:43:52;;;;;;;;;;;;;;;;;;5056340;28;20400;-60
2023/09/30 03:46:18;;;;;;;9.73;2.38;;;;;;;;;;5056508;28;20406;-59
2023/09/30 03:48:44;;;;;;;;;;;;;;;;;;5058936;28;20447;-61
2023/09/30 03:51:14;;;;;;;11.32;2.47;;;;;;;;;;5060583;28;19912;-61
2023/09/30 03:53:41;;;;;;;21.20;4.38;;;;;;;;;;5064884;28;20070;-61
2023/09/30 03:56:07;;;;;;;15.65;2.70;;;;;;;;;;5063707;28;20036;-60
2023/09/30 03:58:33;;;;;;;;;;;;;;;;;;5065181;28;20043;-61
2023/09/30 04:01:00;;;;;;;12.18;3.33;;;;;;;;;;5057467;28;19913;-61
2023/09/30 04:03:29;;;;;;;10.45;2.78;;;;;;;;;;5065581;28;20043;-61
2023/09/30 04:05:56;;;;;;;15.48;2.90;;;;;;;;;;5061496;28;20077;-61
2023/09/30 04:08:22;;;;;;;13.23;3.28;;;;;;;;;;5059530;28;20044;-61
2023/09/30 04:10:49;;;;;;;;;;;;;;;;;;5061951;28;20036;-61
2023/09/30 04:13:15;;;;;;;16.42;4.35;;;;;;;;;;5060721;28;19946;-61
2023/09/30 04:15:41;;;;;;;14.45;3.10;;;;;;;;;;5058756;28;20036;-60
2023/09/30 04:18:06;;;;;;;;;;;;;;;;;;5053932;28;20052;-60
2023/09/30 04:20:32;;;;;;;12.30;3.20;;;;;;;;;;5053659;28;20330;-60
2023/09/30 04:22:58;;;;;;;;;;;;;;;;;;5058193;28;20028;-61
2023/09/30 04:25:25;;;;;;;11.57;2.78;;;;;;;;;;5061959;28;19927;-62
2023/09/30 04:27:51;;;;;;;11.50;2.85;;;;;;;;;;5054794;28;20116;-61
2023/09/30 04:30:17;;;;;;;;;;;;;;;;;;5056854;28;20062;-61
2023/09/30 04:32:43;;;;;;;18.98;3.00;;;;;;;;;;5058169;28;20009;-61
2023/09/30 04:35:10;;;;;;;14.02;2.83;;;;;;;;;;5063955;28;20090;-60
2023/09/30 04:37:37;;;;;;;14.23;3.47;;;;;;;;;;5062889;28;20036;-58
2023/09/30 04:40:08;;;;;;;12.13;3.20;;;;;;;;;;5063217;28;20047;-60
2023/09/30 04:42:37;;;;;;;12.40;2.70;;;;;;;;;;5060975;28;20464;-61
2023/09/30 04:45:07;;;;;;;11.60;3.13;;;;;;;;;;5059003;28;20123;-61
2023/09/30 04:47:33;;;;;;;14.88;3.85;;;;;;;;;;5064084;28;20067;-62
2023/09/30 04:49:59;;;;;;;18.40;3.92;;;;;;;;;;5058788;28;20032;-62
2023/09/30 04:52:28;;;;;;;10.00;3.28;;;;;;;;;;5061696;28;20476;-61
2023/09/30 04:54:54;;;;;;;12.57;3.30;;;;;;;;;;5076449;28;20157;-62
2023/09/30 04:57:20;;;;;;;;;;;;;;;;;;5061454;28;20071;-60
2023/09/30 04:59:46;;;;;;;12.73;2.97;;;;;;;;;;5063843;28;19916;-62
2023/09/30 05:02:15;;;;;;;15.80;3.13;;;;;;;;;;5061611;28;20506;-61
2023/09/30 05:04:42;;;;;;;15.38;3.70;;;;;;;;;;5060701;28;20040;-61
2023/09/30 05:07:08;;;;;;;15.95;3.38;;;;;;;;;;5063878;28;20119;-59
2023/09/30 05:09:34;;;;;;;14.20;3.28;;;;;;;;;;5063393;28;20037;-61
2023/09/30 05:12:00;;;;;;;;;;;;;;;;;;5060785;28;20032;-61
2023/09/30 05:14:28;;;;;;;15.68;2.88;;;;;;;;;;5062522;28;19916;-61
2023/09/30 05:16:56;;;;;;;15.98;4.05;;;;;;;;;;5061855;28;20067;-61
2023/09/30 05:19:22;;;;;;;11.98;3.00;;;;;;;;;;5062120;28;20056;-60
2023/09/30 05:21:48;;;;;;;20.52;3.65;;;;;;;;;;5061227;28;20036;-61
2023/09/30 05:24:15;;;;;;;14.10;3.20;;;;;;;;;;5060574;28;20036;-61
2023/09/30 05:26:41;;;;;;;13.48;3.28;;;;;;;;;;5056933;28;20068;-61
2023/09/30 05:29:07;;;;;;;;;;;;;;;;;;5059279;28;20059;-60
2023/09/30 05:31:33;;;;;;;21.48;3.50;;;;;;;;;;5054329;28;19973;-61
2023/09/30 05:33:59;;;;;;;16.27;3.75;;;;;;;;;;5060844;28;20801;-61
2023/09/30 05:36:25;;;;;;;;;;;;;;;;;;5056449;28;20040;-62
2023/09/30 05:38:51;;;;;;;13.30;2.85;;;;;;;;;;5056994;28;20380;-62
2023/09/30 05:41:17;;;;;;;;;;;;;;;;;;5056084;28;20049;-60
2023/09/30 05:43:43;;;;;;;10.30;2.90;;;;;;;;;;5059903;28;20005;-61
2023/09/30 05:46:09;;;;;;;;;;;;;;;;;;5063757;28;20068;-61
2023/09/30 05:48:35;;;;;;;14.95;3.33;;;;;;;;;;5055347;28;19920;-62
2023/09/30 05:51:01;;;;;;;9.75;2.90;;;;;;;;;;5064239;28;20057;-61
2023/09/30 05:53:27;;;;;;;;;;;;;;;;;;5058611;28;20542;-61
2023/09/30 05:55:53;;;;;;;16.20;2.60;;;;;;;;;;5063100;28;19912;-63
2023/09/30 05:58:20;;;;;;;;;;;;;;;;;;5060651;28;20672;-60
2023/09/30 06:00:46;;;;;;;10.40;2.58;;;;;;;;;;5061938;28;19917;-62
2023/09/30 06:03:12;;;;;;;14.43;2.40;;;;;;;;;;5070201;28;20389;-64
2023/09/30 06:05:42;;;;;;;12.82;2.58;;;;;;;;;;5059291;28;20037;-62
2023/09/30 06:08:10;;;;;;;10.55;2.78;;;;;;;;;;5059889;28;20040;-64
2023/09/30 06:10:38;;;;;;;12.13;3.28;;;;;;;;;;5055530;28;20036;-65
2023/09/30 06:13:05;;;;;;;12.57;2.80;;;;;;;;;;5062416;28;20036;-65
2023/09/30 06:15:31;;;;;;;10.98;3.10;;;;;;;;;;5060526;28;20040;-66
2023/09/30 06:17:59;;;;;;;13.90;3.08;;;;;;;;;;5062134;28;20114;-65
2023/09/30 06:20:26;;;;;;;14.13;2.65;;;;;;;;;;5053458;28;20041;-63
2023/09/30 06:22:55;;;;;;;10.05;3.00;;;;;;;;;;5061240;28;20658;-63
2023/09/30 06:25:23;;;;;;;15.40;2.75;;;;;;;;;;5062531;28;20132;-63
2023/09/30 06:27:50;;;;;;;10.60;2.40;;;;;;;;;;5059157;28;20049;-63
2023/09/30 06:30:16;;;;;;;11.88;2.85;;;;;;;;;;5059199;28;20131;-64
2023/09/30 06:32:43;;;;;;;15.10;3.78;;;;;;;;;;5058873;28;20123;-62
2023/09/30 06:35:12;;;;;;;14.00;2.97;;;;;;;;;;5056626;28;20037;-63
2023/09/30 06:37:39;;;;;;;8.55;2.90;;;;;;;;;;5060902;28;20068;-63
2023/09/30 06:40:07;;;;;;;12.40;3.90;;;;;;;;;;5061237;28;20041;-62
2023/09/30 06:42:34;;;;;;;16.30;3.55;;;;;;;;;;5057586;28;20546;-63
2023/09/30 06:45:06;;;;;;;16.77;3.65;;;;;;;;;;5046867;28;20041;-63
2023/09/30 06:47:38;;;;;;;10.15;2.83;;;;;;;;;;5052024;28;20045;-62
2023/09/30 06:50:07;;;;;;;14.60;3.25;;;;;;;;;;5050587;28;20107;-62
2023/09/30 06:52:39;;;;;;;15.93;3.22;;;;;;;;;;5057372;28;20455;-62
2023/09/30 06:55:09;;;;;;;17.30;3.58;;;;;;;;;;5057294;28;20036;-62
2023/09/30 06:57:40;;;;;;;15.80;3.53;;;;;;;;;;5058701;28;20074;-62
2023/09/30 07:00:11;;;;;;;11.90;3.30;;;;;;;;;;5061054;28;20111;-62
2023/09/30 07:02:37;;;;;;;14.85;3.28;;;;;;;;;;5058810;28;20090;-63
2023/09/30 07:05:08;;;;;;;11.43;2.83;;;;;;;;;;5062487;28;20064;-62
2023/09/30 07:07:34;;;;;;;11.43;3.00;;;;;;;;;;5059592;28;20071;-62
2023/09/30 07:10:00;;;;;;;21.77;3.72;;;;;;;;;;5060914;28;20119;-62
2023/09/30 07:12:27;;;;;;;17.95;3.90;;;;;;;;;;5061517;28;20036;-63
2023/09/30 07:14:53;;;;;;;13.68;2.97;;;;;;;;;;5061012;28;20618;-62
2023/09/30 07:17:19;;;;;;;13.90;3.22;;;;;;;;;;5059961;28;20047;-62
2023/09/30 07:19:45;;;;;;;;;;;;;;;;;;5059102;28;20334;-62
2023/09/30 07:22:13;;;;;;;14.25;2.85;;;;;;;;;;5057468;28;20063;-62
2023/09/30 07:24:39;;;;;;;14.48;2.97;;;;;;;;;;5055125;28;20036;-62
2023/09/30 07:27:06;;;;;;;14.07;3.90;;;;;;;;;;5061742;28;20162;-62
2023/09/30 07:29:33;;;;;;;10.90;2.72;;;;;;;;;;5063041;28;20045;-62
2023/09/30 07:31:59;;;;;;;11.73;2.83;;;;;;;;;;5060843;28;20054;-62
2023/09/30 07:34:25;;;;;;;;;;;;;;;;;;5063939;28;20044;-62
2023/09/30 07:36:51;;;;;;;9.80;3.05;;;;;;;;;;5063552;28;19928;-62
2023/09/30 07:39:17;;;;;;;11.70;2.60;;;;;;;;;;5064057;28;20048;-63
2023/09/30 07:41:43;;;;;;;13.05;2.75;;;;;;;;;;5058614;28;20040;-63
2023/09/30 07:44:10;;;;;;;;;;;;;;;;;;5056577;28;20040;-63
2023/09/30 07:46:36;;;;;;;7.95;2.00;;;;;;;;;;5057749;28;19924;-62
2023/09/30 07:49:03;;;;;;;11.07;2.58;;;;;;;;;;5062463;28;21281;-62
2023/09/30 07:51:32;;;;;;;14.35;2.75;;;;;;;;;;5062732;28;20393;-63
2023/09/30 07:53:58;;;;;;;16.33;2.88;;;;;;;;;;5056054;28;20488;-62
2023/09/30 07:56:24;;;;;;;;;;;;;;;;;;5059844;28;20978;-62
2023/09/30 07:58:50;;;;;;;10.15;2.72;;;;;;;;;;5062003;28;20078;-61
2023/09/30 08:01:17;;;;;;;10.48;2.63;;;;;;;;;;5059985;28;20659;-62
2023/09/30 08:03:43;;;;;;;10.85;2.35;;;;;;;;;;5060527;28;20049;-62
2023/09/30 08:06:09;;;;;;;;;;;;;;;;;;5058628;28;20126;-62
2023/09/30 08:08:36;;;;;;;13.20;2.67;;;;;;;;;;5064607;28;20429;-62
2023/09/30 08:11:02;;;;;;;13.55;2.85;;;;;;;;;;5063041;28;20043;-62
2023/09/30 08:13:29;;;;;;;8.23;2.10;;;;;;;;;;5063394;28;20166;-62
2023/09/30 08:15:55;;;;;;;16.25;2.80;;;;;;;;;;5051585;28;20040;-63
2023/09/30 08:18:21;;;;;;;7.95;2.08;;;;;;;;;;5063664;28;20033;-62
2023/09/30 08:20:49;;;;;;;;;;;;;;;;;;5059845;28;20048;-62
2023/09/30 08:23:15;;;;;;;10.52;2.47;;;;;;;;;;5062813;28;19916;-64
2023/09/30 08:25:41;;;;;;;10.38;2.78;;;;;;;;;;5060704;28;20425;-63
2023/09/30 08:28:09;;;;;;;10.35;2.63;;;;;;;;;;5062376;28;20064;-64
2023/09/30 08:30:35;;;;;;;12.98;2.15;;;;;;;;;;5061537;28;20073;-64
2023/09/30 08:33:01;;;;;;;8.63;2.63;;;;;;;;;;5061953;28;20032;-64
2023/09/30 08:35:27;;;;;;;13.40;2.45;;;;;;;;;;5063536;28;20032;-64
2023/09/30 08:37:53;;;;;;;11.63;2.22;;;;;;;;;;5065160;28;20036;-63
2023/09/30 08:40:20;;;;;;;7.57;1.98;;;;;;;;;;5063442;28;20947;-63
2023/09/30 08:42:48;;;;;;;10.50;2.20;;;;;;;;;;5064728;28;20043;-63
2023/09/30 08:45:15;;;;;;;12.52;2.50;;;;;;;;;;5061420;28;20024;-63
2023/09/30 08:47:41;;;;;;;12.20;2.78;;;;;;;;;;5063492;28;20086;-64
2023/09/30 08:50:10;;;;;;;13.25;2.63;;;;;;;;;;5059734;28;20041;-63
2023/09/30 08:52:36;;;;;;;9.85;2.45;;;;;;;;;;5065301;28;20028;-63
2023/09/30 08:55:03;;;;;;;9.80;2.13;;;;;;;;;;5064559;28;20066;-63
2023/09/30 08:57:31;;;;;;;11.57;2.42;;;;;;;;;;5064365;28;20110;-63
2023/09/30 08:59:58;;;;;;;19.00;2.70;;;;;;;;;;5057826;28;20060;-62
2023/09/30 09:02:24;;;;;;;9.02;2.65;;;;;;;;;;5062161;28;20067;-62
2023/09/30 09:04:50;;;;;;;;;;;;;;;;;;5059613;28;20037;-63
2023/09/30 09:07:16;;;;;;;8.27;2.00;;;;;;;;;;5052502;28;19920;-63
2023/09/30 09:09:43;;;;;;;;;;;;;;;;;;5063798;28;20041;-63
2023/09/30 09:12:19;;;;;;;8.50;2.65;;;;;;;;;;5063478;28;19952;-63
2023/09/30 09:14:47;;;;;;;7.38;2.55;;;;;;;;;;5064201;28;20036;-63
2023/09/30 09:17:13;;;;;;;11.50;2.22;;;;;;;;;;5063180;28;20036;-62
2023/09/30 09:19:39;;;;;;;16.90;2.63;;;;;;;;;;5056848;28;20044;-62
2023/09/30 09:22:06;;;;;;;;;;;;;;;;;;5060734;28;20029;-63
2023/09/30 09:24:33;;;;;;;7.88;2.47;;;;;;;;;;5060080;28;19920;-62
2023/09/30 09:27:12;;;;;;;8.48;1.88;;;;;;;;;;5057029;28;20047;-63
2023/09/30 09:29:39;;;;;;;10.38;2.03;;;;;;;;;;5060928;28;20071;-63
2023/09/30 09:32:09;;;;;;;12.02;2.15;;;;;;;;;;5061798;28;20110;-63
2023/09/30 09:34:35;;;;;;;12.63;2.63;;;;;;;;;;5064040;28;20040;-63
2023/09/30 09:37:12;;;;;;;12.70;2.72;;;;;;;;;;5062311;28;20037;-63
2023/09/30 09:39:38;;;;;;;10.40;2.95;;;;;;;;;;5058038;28;20051;-62
2023/09/30 09:42:06;;;;;;;14.57;2.80;;;;;;;;;;5061839;28;20042;-62
2023/09/30 09:44:33;;;;;;;13.15;3.00;;;;;;;;;;5061899;28;20036;-63
2023/09/30 09:47:03;;;;;;;11.25;2.63;;;;;;;;;;5062031;28;20028;-61
2023/09/30 09:49:30;;;;;;;9.93;2.75;;;;;;;;;;5063145;28;20120;-63
2023/09/30 09:51:57;;;;;;;10.75;3.28;;;;;;;;;;5056312;28;20045;-63
2023/09/30 09:54:24;;;;;;;13.75;3.08;;;;;;;;;;5062449;28;20055;-63
2023/09/30 09:56:50;;;;;;;8.55;2.42;;;;;;;;;;5064038;28;20036;-63
2023/09/30 09:59:16;;;;;;;7.20;2.33;;;;;;;;;;5064565;28;20032;-63
2023/09/30 10:01:43;;;;;;;;;;;;;;;;;;5062883;28;20043;-62
2023/09/30 10:04:11;;;;;;;11.55;2.70;;;;;;;;;;5064087;28;19920;-65
2023/09/30 10:06:40;;;;;;;8.65;2.88;;;;;;;;;;5063619;28;20040;-64
2023/09/30 10:09:08;;;;;;;9.73;3.35;;;;;;;;;;5064346;28;20093;-64
2023/09/30 10:11:35;;;;;;;12.13;3.47;;;;;;;;;;5052783;28;20075;-65
2023/09/30 10:14:03;;;;;;;12.75;2.10;;;;;;;;;;5055208;28;20037;-64
2023/09/30 10:16:48;;;;;;;11.45;2.40;;;;;;;;;;5060101;28;20859;-64
2023/09/30 10:19:24;;;;;;;12.40;3.03;;;;;;;;;;5057324;28;20036;-63
2023/09/30 10:21:50;;;;;;;;;;;;;;;;;;5062164;28;20051;-63
2023/09/30 10:24:27;;;;;;;11.93;2.80;;;;;;;;;;5061759;28;20637;-63
2023/09/30 10:27:29;;;;;;;16.88;2.50;;;;;;;;;;5060814;28;20431;-63
2023/09/30 10:30:00;;;;;;;11.00;2.63;;;;;;;;;;5039320;28;20036;-64
2023/09/30 10:33:02;;;;;;;6.25;2.20;;;;;;;;;;5057308;28;20048;-63
2023/09/30 10:35:28;;;;;;;8.80;2.42;;;;;;;;;;4980340;28;20093;-62
2023/09/30 10:37:54;;;;;;;;;;;;;;;;;;5039880;28;20036;-63
2023/09/30 10:40:26;;;;;;;8.00;2.20;;;;;;;;;;5061329;28;20689;-63
2023/09/30 10:42:55;;;;;;;9.45;2.35;;;;;;;;;;5057704;28;20045;-63
2023/09/30 10:45:38;;;;;;;8.70;2.90;;;;;;;;;;5062170;28;20036;-64
2023/09/30 10:48:23;;;;;;;7.65;2.13;;;;;;;;;;5053670;28;20041;-63
2023/09/30 10:50:53;;;;;;;8.70;2.85;;;;;;;;;;5059466;28;20115;-64
2023/09/30 10:53:19;;;;;;;8.13;2.58;;;;;;;;;;5061557;28;20535;-64
2023/09/30 10:55:46;;;;;;;11.88;3.47;;;;;;;;;;5060909;28;20044;-63
2023/09/30 10:58:15;;;;;;;8.38;2.92;;;;;;;;;;5061892;28;20041;-63
2023/09/30 11:01:00;;;;;;;11.25;2.83;;;;;;;;;;5057932;28;20571;-64
2023/09/30 11:03:26;;;;;;;7.25;2.72;;;;;;;;;;5058564;28;20062;-64
2023/09/30 11:05:53;;;;;;;15.55;2.97;;;;;;;;;;5057936;28;20041;-65
2023/09/30 11:08:24;;;;;;;10.27;3.13;;;;;;;;;;5059602;28;20033;-65
2023/09/30 11:10:51;;;;;;;9.63;2.63;;;;;;;;;;5052560;28;20511;-65
2023/09/30 11:13:18;;;;;;;10.18;2.58;;;;;;;;;;5059121;28;20037;-65
2023/09/30 11:15:46;;;;;;;9.98;3.10;;;;;;;;;;5053636;28;20045;-65
2023/09/30 11:18:16;;;;;;;7.15;1.90;;;;;;;;;;5058276;28;20040;-65
2023/09/30 11:20:43;;;;;;;10.40;2.13;;;;;;;;;;5061227;28;20139;-65
2023/09/30 11:23:09;;;;;;;6.57;2.35;;;;;;;;;;5062414;28;20563;-65
2023/09/30 11:25:37;;;;;;;8.15;1.95;;;;;;;;;;5059855;28;20044;-65
2023/09/30 11:28:16;;;;;;;7.97;2.03;;;;;;;;;;5061774;28;20047;-65
2023/09/30 11:31:02;;;;;;;8.88;2.40;;;;;;;;;;5061572;28;20143;-65
2023/09/30 11:33:28;;;;;;;9.60;2.83;;;;;;;;;;5048648;28;20064;-65
2023/09/30 11:35:58;;;;;;;7.20;1.90;;;;;;;;;;5061189;28;20492;-65
2023/09/30 11:38:25;;;;;;;11.88;3.15;;;;;;;;;;5055811;28;20065;-65
2023/09/30 11:41:02;;;;;;;7.03;2.63;;;;;;;;;;5061001;28;20044;-64
2023/09/30 11:43:29;;;;;;;11.02;3.00;;;;;;;;;;5056939;28;20075;-65
2023/09/30 11:46:04;;;;;;;10.95;1.83;;;;;;;;;;5052592;28;20048;-65
2023/09/30 11:48:30;;;;;;;12.43;3.00;;;;;;;;;;5052789;28;20072;-64
2023/09/30 11:51:02;;;;;;;10.48;2.45;;;;;;;;;;5060761;28;20056;-64
2023/09/30 11:53:30;;;;;;;10.23;2.60;;;;;;;;;;5059178;28;20047;-64
2023/09/30 11:55:58;;;;;;;5.45;2.15;;;;;;;;;;5060050;28;20516;-65
2023/09/30 11:58:24;;;;;;;6.65;2.10;;;;;;;;;;5061000;28;20526;-64
2023/09/30 12:00:53;;;;;;;10.63;2.25;;;;;;;;;;5065831;28;20051;-65
2023/09/30 12:03:20;;;;;;;8.35;2.28;;;;;;;;;;5061462;28;20037;-65
2023/09/30 12:05:46;;;;;;;5.68;2.25;;;;;;;;;;5068197;28;20131;-65
2023/09/30 12:08:12;;;;;;;;;;;;;;;;;;5069972;28;20119;-65
2023/09/30 12:10:40;;;;;;;10.70;2.45;;;;;;;;;;5068883;28;19968;-64
2023/09/30 12:13:06;;;;;;;10.48;2.63;;;;;;;;;;5068085;28;20031;-64
2023/09/30 12:15:32;;;;;;;11.23;2.90;;;;;;;;;;5071439;28;20040;-64
2023/09/30 12:17:58;;;;;;;9.15;2.40;;;;;;;;;;5070299;28;20559;-64
2023/09/30 12:20:25;;;;;;;11.23;2.83;;;;;;;;;;5071684;28;20051;-64
2023/09/30 12:22:53;;;;;;;6.93;1.95;;;;;;;;;;5067938;28;20797;-64
2023/09/30 12:25:21;;;;;;;6.13;1.65;;;;;;;;;;5067531;28;20051;-64
2023/09/30 12:27:48;;;;;;;5.32;1.83;;;;;;;;;;5060475;28;20563;-65
2023/09/30 12:30:14;;;;;;;10.50;2.42;;;;;;;;;;5057879;28;20124;-64
2023/09/30 12:32:40;;;;;;;6.03;2.03;;;;;;;;;;5062507;28;20113;-65
2023/09/30 12:35:06;;;;;;;7.32;1.70;;;;;;;;;;5062026;28;20449;-66
2023/09/30 12:37:32;;;;;;;6.35;1.90;;;;;;;;;;5062177;28;20098;-66
2023/09/30 12:39:58;;;;;;;;;;;;;;;;;;5062384;28;20032;-67
2023/09/30 12:42:25;;;;;;;9.90;2.70;;;;;;;;;;5058819;28;19927;-65
2023/09/30 12:44:51;;;;;;;6.32;2.17;;;;;;;;;;5057660;28;20415;-63
2023/09/30 12:47:16;;;;;;;;;;;;;;;;;;5058078;28;20948;-63
2023/09/30 12:49:42;;;;;;;8.43;1.85;;;;;;;;;;5061470;28;19985;-64
2023/09/30 12:52:09;;;;;;;6.35;1.83;;;;;;;;;;5057201;28;20064;-64
2023/09/30 12:54:35;;;;;;;4.57;1.58;;;;;;;;;;5061297;28;20071;-64
2023/09/30 12:57:01;;;;;;;;;;;;;;;;;;5063855;28;20040;-62
2023/09/30 12:59:27;;;;;;;12.48;2.08;;;;;;;;;;5060243;28;19920;-64
2023/09/30 13:01:53;;;;;;;5.72;1.85;;;;;;;;;;5057303;28;20047;-61
2023/09/30 13:04:19;;;;;;;7.07;1.83;;;;;;;;;;5058203;28;20041;-64
2023/09/30 13:06:45;;;;;;;5.57;1.90;;;;;;;;;;5061471;28;20137;-61
2023/09/30 13:09:11;;;;;;;10.35;2.05;;;;;;;;;;5063438;28;20028;-61
2023/09/30 13:11:38;;;;;;;10.40;2.33;;;;;;;;;;5060918;28;20098;-61
2023/09/30 13:14:04;;;;;;;7.40;1.80;;;;;;;;;;5056650;28;20539;-62
2023/09/30 13:16:30;;;;;;;9.13;2.10;;;;;;;;;;5057399;28;20051;-62
2023/09/30 13:18:56;;;;;;;6.22;2.03;;;;;;;;;;5059866;28;20036;-63
2023/09/30 13:21:22;;;;;;;;;;;;;;;;;;5056005;28;20111;-61
2023/09/30 13:23:48;;;;;;;5.88;1.80;;;;;;;;;;5057366;28;19927;-62
2023/09/30 13:26:14;;;;;;;6.28;1.65;;;;;;;;;;5059415;28;20180;-62
2023/09/30 13:28:40;;;;;;;;;;;;;;;;;;5060593;28;20112;-62
2023/09/30 13:31:07;;;;;;;6.13;1.88;;;;;;;;;;5055478;28;19921;-61
2023/09/30 13:33:33;;;;;;;12.15;2.50;;;;;;;;;;5057239;28;20535;-62
2023/09/30 13:36:00;;;;;;;7.38;2.55;;;;;;;;;;5057803;28;20642;-61
2023/09/30 13:38:26;;;;;;;3.63;1.73;;;;;;;;;;5063302;28;20044;-63
2023/09/30 13:40:52;;;;;;;5.88;1.73;;;;;;;;;;5059428;28;20405;-62
2023/09/30 13:43:19;;;;;;;5.43;1.88;;;;;;;;;;5061468;28;20127;-62
2023/09/30 13:45:45;;;;;;;7.18;1.67;;;;;;;;;;5058473;28;20040;-62
2023/09/30 13:48:11;;;;;;;;;;;;;;;;;;5061822;28;20044;-62
2023/09/30 13:50:37;;;;;;;4.75;2.13;;;;;;;;;;5050669;28;19916;-62
2023/09/30 13:53:03;;;;;;;6.10;2.15;;;;;;;;;;5064292;28;20041;-62
2023/09/30 13:55:29;;;;;;;5.15;1.70;;;;;;;;;;5058505;28;20039;-63
2023/09/30 13:57:55;;;;;;;;;;;;;;;;;;5063114;28;20033;-63
2023/09/30 14:00:21;;;;;;;3.33;1.33;;;;;;;;;;5063279;28;19920;-62
2023/09/30 14:02:47;;;;;;;;;;;;;;;;;;5064115;28;20175;-62
2023/09/30 14:05:13;;;;;;;7.63;1.65;;;;;;;;;;5062130;28;19920;-62
2023/09/30 14:07:43;;;;;;;4.60;1.55;;;;;;;;;;5056458;28;20033;-62
2023/09/30 14:10:10;;;;;;;8.10;1.60;;;;;;;;;;5059040;28;20041;-62
2023/09/30 14:12:37;;;;;;;6.50;1.58;;;;;;;;;;5058566;28;20044;-62
2023/09/30 14:15:05;;;;;;;10.45;1.88;;;;;;;;;;5062662;28;20968;-62
2023/09/30 14:17:31;;;;;;;4.30;1.30;;;;;;;;;;5057600;28;20619;-62
2023/09/30 14:19:57;;;;;;;;;;;;;;;;;;5059451;28;20040;-62
2023/09/30 14:22:22;;;;;;;5.40;1.40;;;;;;;;;;5062578;28;19924;-62
2023/09/30 14:24:48;;;;;;;5.63;1.40;;;;;;;;;;5059624;28;20206;-63
2023/09/30 14:27:15;;;;;;;7.05;1.83;;;;;;;;;;5063680;28;20408;-62
2023/09/30 14:29:43;;;;;;;4.78;1.60;;;;;;;;;;5063447;28;20032;-61
2023/09/30 14:32:09;;;;;;;5.45;1.90;;;;;;;;;;5057017;28;20036;-61
2023/09/30 14:34:35;;;;;;;;;;;;;;;;;;5059353;28;20515;-62